createdAt,value
2022-10-09T00:01:23.240Z,10.74
2022-10-09T00:03:53.391Z,10.81
2022-10-09T00:06:27.114Z,11.02
2022-10-09T00:08:54.862Z,11.08
2022-10-09T00:11:26.632Z,11.21
2022-10-09T00:13:55.935Z,11.26
2022-10-09T00:16:25.802Z,11.29
2022-10-09T00:18:54.449Z,11.56
2022-10-09T00:21:25.513Z,11.42
2022-10-09T00:23:57.370Z,11.42
2022-10-09T00:26:26.488Z,11.44
2022-10-09T00:28:55.420Z,11.35
2022-10-09T00:31:23.619Z,11.26
2022-10-09T00:33:51.400Z,11.26
2022-10-09T00:36:24.394Z,11.27
2022-10-09T00:38:54.533Z,11.22
2022-10-09T00:41:25.459Z,11.13
2022-10-09T00:44:01.659Z,11.21
2022-10-09T00:46:47.981Z,11.24
2022-10-09T00:49:29.037Z,11.32
2022-10-09T00:52:03.407Z,11.33
2022-10-09T00:54:33.964Z,11.42
2022-10-09T00:57:02.377Z,11.54
2022-10-09T00:59:31.815Z,11.69
2022-10-09T01:01:59.932Z,11.68
2022-10-09T01:04:27.942Z,11.59
2022-10-09T01:07:29.583Z,11.59
2022-10-09T01:10:04.568Z,11.33
2022-10-09T01:12:54.970Z,11.16
2022-10-09T01:15:39.395Z,11.03
2022-10-09T01:18:20.917Z,11.11
2022-10-09T01:21:07.355Z,10.88
2022-10-09T01:23:55.351Z,10.93
2022-10-09T01:26:24.343Z,10.97
2022-10-09T01:28:56.705Z,10.99
2022-10-09T01:31:28.290Z,11.34
2022-10-09T01:33:57.946Z,11.22
2022-10-09T01:36:27.521Z,11.42
2022-10-09T01:38:57.600Z,11.35
2022-10-09T01:41:26.366Z,11.59
2022-10-09T01:43:54.538Z,11.51
2022-10-09T01:46:33.104Z,11.66
2022-10-09T01:49:30.441Z,11.54
2022-10-09T01:52:01.687Z,11.62
2022-10-09T01:54:48.054Z,11.59
2022-10-09T01:57:23.939Z,11.52
2022-10-09T01:59:53.069Z,11.35
2022-10-09T02:02:21.823Z,11.21
2022-10-09T02:04:50.834Z,11.25
2022-10-09T02:07:19.097Z,11.30
2022-10-09T02:09:47.040Z,11.37
2022-10-09T02:12:16.671Z,11.42
2022-10-09T02:14:44.634Z,11.47
2022-10-09T02:17:21.986Z,11.53
2022-10-09T02:19:54.951Z,11.41
2022-10-09T02:22:27.850Z,11.56
2022-10-09T02:25:01.572Z,11.51
2022-10-09T02:27:30.410Z,11.43
2022-10-09T02:30:00.303Z,11.43
2022-10-09T02:32:29.311Z,11.49
2022-10-09T02:34:57.120Z,11.48
2022-10-09T02:37:25.041Z,11.54
2022-10-09T02:39:53.828Z,11.55
2022-10-09T02:42:22.213Z,11.54
2022-10-09T02:44:50.079Z,11.48
2022-10-09T02:47:17.821Z,11.59
2022-10-09T02:49:45.582Z,11.56
2022-10-09T02:52:13.493Z,11.52
2022-10-09T02:54:41.234Z,11.47
2022-10-09T02:57:09.000Z,11.49
2022-10-09T02:59:38.364Z,11.48
2022-10-09T03:02:06.181Z,11.50
2022-10-09T03:04:34.013Z,11.26
2022-10-09T03:07:01.986Z,11.17
2022-10-09T03:09:33.538Z,11.24
2022-10-09T03:12:01.424Z,11.09
2022-10-09T03:14:29.423Z,11.00
2022-10-09T03:16:57.592Z,10.87
2022-10-09T03:19:25.554Z,10.81
2022-10-09T03:21:53.631Z,10.78
2022-10-09T03:24:21.349Z,10.73
2022-10-09T03:26:49.194Z,10.77
2022-10-09T03:29:17.056Z,10.78
2022-10-09T03:31:52.380Z,10.70
2022-10-09T03:34:21.224Z,10.77
2022-10-09T03:36:48.880Z,10.67
2022-10-09T03:39:16.703Z,10.57
2022-10-09T03:41:44.603Z,10.51
2022-10-09T03:44:12.415Z,10.52
2022-10-09T03:46:40.111Z,10.56
2022-10-09T03:49:08.657Z,10.61
2022-10-09T03:51:36.387Z,10.71
2022-10-09T03:54:04.413Z,10.65
2022-10-09T03:56:32.532Z,10.58
2022-10-09T03:59:00.260Z,10.58
2022-10-09T04:01:27.985Z,10.55
2022-10-09T04:03:55.951Z,10.58
2022-10-09T04:06:23.651Z,10.55
2022-10-09T04:08:51.527Z,10.60
2022-10-09T04:11:19.624Z,10.69
2022-10-09T04:13:47.269Z,10.69
2022-10-09T04:16:15.202Z,10.68
2022-10-09T04:18:44.351Z,10.69
2022-10-09T04:21:13.105Z,10.62
2022-10-09T04:23:40.994Z,10.51
2022-10-09T04:26:10.798Z,10.56
2022-10-09T04:28:38.647Z,10.55
2022-10-09T04:31:06.516Z,10.58
2022-10-09T04:33:34.443Z,10.62
2022-10-09T04:36:02.190Z,10.48
2022-10-09T04:38:32.201Z,10.47
2022-10-09T04:41:06.028Z,10.62
2022-10-09T04:43:35.063Z,10.66
2022-10-09T04:46:07.656Z,10.47
2022-10-09T04:48:43.254Z,10.47
2022-10-09T04:51:11.837Z,10.53
2022-10-09T04:53:40.525Z,10.49
2022-10-09T04:56:12.853Z,10.61
2022-10-09T04:58:41.423Z,10.52
2022-10-09T05:01:21.842Z,10.53
2022-10-09T05:03:50.969Z,10.56
2022-10-09T05:06:19.883Z,10.36
2022-10-09T05:08:48.665Z,10.32
2022-10-09T05:11:20.163Z,10.44
2022-10-09T05:13:50.890Z,10.50
2022-10-09T05:16:22.171Z,10.38
2022-10-09T05:18:52.171Z,10.28
2022-10-09T05:21:21.475Z,10.29
2022-10-09T05:23:49.899Z,10.30
2022-10-09T05:26:22.007Z,10.25
2022-10-09T05:28:50.540Z,10.28
2022-10-09T05:31:22.717Z,10.33
2022-10-09T05:33:50.834Z,10.39
2022-10-09T05:36:19.892Z,10.28
2022-10-09T05:38:47.626Z,10.25
2022-10-09T05:41:17.715Z,10.13
2022-10-09T05:43:47.801Z,10.23
2022-10-09T05:46:23.910Z,10.18
2022-10-09T05:48:54.328Z,10.13
2022-10-09T05:51:27.598Z,10.30
2022-10-09T05:53:57.151Z,10.23
2022-10-09T05:56:27.358Z,10.12
2022-10-09T05:58:57.584Z,10.12
2022-10-09T06:01:34.494Z,10.14
2022-10-09T06:04:03.262Z,10.26
2022-10-09T06:06:33.513Z,10.37
2022-10-09T06:09:01.389Z,10.44
2022-10-09T06:11:32.219Z,10.51
2022-10-09T06:14:02.109Z,10.54
2022-10-09T06:16:33.419Z,10.59
2022-10-09T06:19:04.114Z,10.63
2022-10-09T06:21:32.095Z,10.59
2022-10-09T06:24:02.189Z,10.63
2022-10-09T06:26:30.742Z,10.56
2022-10-09T06:29:01.054Z,10.63
2022-10-09T06:31:31.799Z,10.65
2022-10-09T06:34:01.234Z,10.55
2022-10-09T06:36:30.837Z,10.69
2022-10-09T06:39:05.273Z,10.75
2022-10-09T06:41:34.507Z,10.88
2022-10-09T06:44:16.579Z,11.07
2022-10-09T06:46:48.519Z,11.28
2022-10-09T06:49:16.538Z,11.29
2022-10-09T06:51:44.786Z,11.39
2022-10-09T06:54:15.210Z,11.40
2022-10-09T06:56:43.444Z,11.40
2022-10-09T06:59:12.074Z,11.50
2022-10-09T07:01:40.575Z,11.39
2022-10-09T07:04:12.796Z,11.39
2022-10-09T07:06:43.034Z,11.53
2022-10-09T07:09:13.499Z,11.45
2022-10-09T07:11:44.340Z,11.40
2022-10-09T07:14:14.012Z,11.35
2022-10-09T07:16:44.623Z,11.50
2022-10-09T07:19:14.113Z,11.70
2022-10-09T07:21:45.566Z,11.67
2022-10-09T07:24:14.104Z,11.76
2022-10-09T07:26:44.692Z,11.81
2022-10-09T07:29:14.638Z,11.89
2022-10-09T07:31:42.457Z,11.91
2022-10-09T07:34:10.581Z,12.02
2022-10-09T07:36:38.464Z,11.93
2022-10-09T07:39:06.501Z,12.08
2022-10-09T07:41:34.772Z,12.25
2022-10-09T07:44:02.976Z,12.06
2022-10-09T07:46:33.689Z,12.11
2022-10-09T07:49:03.288Z,12.23
2022-10-09T07:51:32.211Z,12.31
2022-10-09T07:54:01.974Z,12.70
2022-10-09T07:56:32.409Z,12.74
2022-10-09T07:59:02.492Z,12.71
2022-10-09T08:01:32.089Z,12.70
2022-10-09T08:04:00.706Z,12.80
2022-10-09T08:06:29.344Z,12.93
2022-10-09T08:08:59.590Z,13.02
2022-10-09T08:11:29.519Z,13.28
2022-10-09T08:13:57.754Z,13.38
2022-10-09T08:16:26.943Z,13.49
2022-10-09T08:18:57.186Z,13.37
2022-10-09T08:21:26.079Z,13.54
2022-10-09T08:23:55.641Z,13.49
2022-10-09T08:26:25.228Z,13.50
2022-10-09T08:28:55.717Z,13.65
2022-10-09T08:31:25.072Z,13.85
2022-10-09T08:33:55.225Z,13.93
2022-10-09T08:36:23.957Z,14.12
2022-10-09T08:38:52.905Z,14.12
2022-10-09T08:41:32.659Z,14.16
2022-10-09T08:44:24.836Z,14.04
2022-10-09T08:47:21.375Z,13.92
2022-10-09T08:50:25.439Z,13.55
2022-10-09T08:53:13.486Z,13.20
2022-10-09T08:55:49.721Z,13.24
2022-10-09T08:58:21.249Z,13.26
2022-10-09T09:01:20.056Z,13.15
2022-10-09T09:04:29.753Z,13.15
2022-10-09T09:07:24.940Z,13.17
2022-10-09T09:10:00.597Z,13.32
2022-10-09T09:12:34.245Z,13.44
2022-10-09T09:15:37.349Z,13.34
2022-10-09T09:18:26.424Z,13.48
2022-10-09T09:20:57.407Z,13.52
2022-10-09T09:23:33.255Z,13.86
2022-10-09T09:26:02.234Z,13.90
2022-10-09T09:28:34.976Z,14.62
2022-10-09T09:31:13.405Z,15.21
2022-10-09T09:33:44.768Z,15.72
2022-10-09T09:36:22.825Z,17.48
2022-10-09T09:39:36.246Z,17.20
2022-10-09T09:41:41.793Z,16.36
2022-10-09T09:44:15.059Z,15.96
2022-10-09T09:46:45.651Z,15.79
2022-10-09T09:49:18.197Z,16.07
2022-10-09T09:51:48.608Z,16.15
2022-10-09T09:54:21.254Z,15.87
2022-10-09T09:57:11.884Z,16.11
2022-10-09T09:59:41.618Z,16.41
2022-10-09T10:02:17.622Z,16.19
2022-10-09T10:05:00.537Z,15.94
2022-10-09T10:07:37.090Z,16.01
2022-10-09T10:10:17.895Z,15.86
2022-10-09T10:12:52.324Z,15.73
2022-10-09T10:15:32.342Z,15.74
2022-10-09T10:18:06.063Z,15.92
2022-10-09T10:20:50.807Z,15.87
2022-10-09T10:23:52.587Z,15.47
2022-10-09T10:26:46.913Z,15.36
2022-10-09T10:29:17.817Z,14.96
2022-10-09T10:31:52.520Z,14.90
2022-10-09T10:34:24.854Z,14.80
2022-10-09T10:37:16.109Z,14.80
2022-10-09T10:39:51.017Z,14.78
2022-10-09T10:43:03.002Z,15.03
2022-10-09T10:45:34.334Z,15.02
2022-10-09T10:48:05.204Z,15.10
2022-10-09T10:50:43.119Z,15.24
2022-10-09T10:53:17.024Z,15.15
2022-10-09T10:56:05.079Z,14.97
2022-10-09T10:58:55.998Z,14.82
2022-10-09T11:01:53.081Z,14.84
2022-10-09T11:04:42.160Z,14.95
2022-10-09T11:07:26.219Z,15.35
2022-10-09T11:10:01.289Z,15.38
2022-10-09T11:13:01.175Z,15.27
2022-10-09T11:15:49.453Z,15.34
2022-10-09T11:18:55.161Z,15.19
2022-10-09T11:22:06.149Z,15.06
2022-10-09T11:24:47.713Z,14.67
2022-10-09T11:27:21.272Z,14.47
2022-10-09T11:29:58.658Z,14.24
2022-10-09T11:33:00.137Z,14.17
2022-10-09T11:35:50.555Z,14.31
2022-10-09T11:38:31.900Z,14.70
2022-10-09T11:41:03.889Z,14.91
2022-10-09T11:43:44.170Z,14.62
2022-10-09T11:46:39.470Z,14.52
2022-10-09T11:49:17.441Z,14.16
2022-10-09T11:51:45.478Z,14.18
2022-10-09T11:54:16.475Z,14.24
2022-10-09T11:57:06.282Z,14.25
2022-10-09T11:59:37.890Z,14.39
2022-10-09T12:02:23.895Z,14.45
2022-10-09T12:04:55.887Z,14.50
2022-10-09T12:07:36.714Z,14.59
2022-10-09T12:10:09.201Z,14.51
2022-10-09T12:12:38.931Z,14.56
2022-10-09T12:15:27.968Z,14.59
2022-10-09T12:17:55.644Z,14.54
2022-10-09T12:20:26.187Z,14.58
2022-10-09T12:23:21.804Z,14.63
2022-10-09T12:25:46.768Z,14.69
2022-10-09T12:28:37.850Z,14.80
2022-10-09T12:31:15.949Z,14.80
2022-10-09T12:33:49.503Z,14.58
2022-10-09T12:36:25.476Z,14.62
2022-10-09T12:38:53.418Z,14.39
2022-10-09T12:41:30.144Z,14.21
2022-10-09T12:43:59.005Z,14.24
2022-10-09T12:46:33.718Z,14.21
2022-10-09T12:49:04.665Z,14.27
2022-10-09T12:51:33.900Z,14.13
2022-10-09T12:54:09.245Z,14.28
2022-10-09T12:56:39.247Z,14.21
2022-10-09T12:59:10.439Z,14.40
2022-10-09T13:01:40.257Z,14.33
2022-10-09T13:04:11.245Z,14.39
2022-10-09T13:06:50.126Z,14.41
2022-10-09T13:09:28.940Z,14.26
2022-10-09T13:12:01.053Z,14.31
2022-10-09T13:14:45.050Z,14.29
2022-10-09T13:20:16.201Z,14.67
2022-10-09T13:23:01.279Z,14.85
2022-10-09T13:25:37.592Z,14.91
2022-10-09T13:28:06.050Z,14.94
2022-10-09T13:30:34.443Z,14.74
2022-10-09T13:33:02.291Z,14.90
2022-10-09T13:35:30.708Z,15.00
2022-10-09T13:37:58.499Z,15.00
2022-10-09T13:40:26.237Z,15.00
2022-10-09T13:42:57.764Z,14.76
2022-10-09T13:45:25.740Z,14.81
2022-10-09T13:47:53.844Z,14.63
2022-10-09T13:50:21.905Z,14.50
2022-10-09T13:52:49.737Z,14.60
2022-10-09T13:55:17.527Z,14.44
2022-10-09T13:57:46.052Z,14.44
2022-10-09T14:00:14.372Z,14.36
2022-10-09T14:02:42.131Z,14.21
2022-10-09T14:05:10.127Z,14.01
2022-10-09T14:07:37.969Z,13.97
2022-10-09T14:10:06.553Z,13.93
2022-10-09T14:12:34.769Z,13.91
2022-10-09T14:15:02.550Z,14.09
2022-10-09T14:17:30.542Z,14.13
2022-10-09T14:19:58.476Z,14.13
2022-10-09T14:22:26.191Z,14.21
2022-10-09T14:24:54.534Z,14.36
2022-10-09T14:27:22.675Z,14.46
2022-10-09T14:29:53.052Z,14.57
2022-10-09T14:32:23.724Z,14.73
2022-10-09T14:34:51.643Z,14.62
2022-10-09T14:37:39.884Z,14.40
2022-10-09T14:40:07.726Z,14.19
2022-10-09T14:42:37.934Z,14.04
2022-10-09T14:45:07.149Z,13.74
2022-10-09T14:47:35.057Z,13.70
2022-10-09T14:50:02.993Z,13.55
2022-10-09T14:52:30.795Z,13.42
2022-10-09T14:54:58.647Z,13.32
2022-10-09T14:57:27.719Z,13.25
2022-10-09T14:59:57.992Z,13.18
2022-10-09T15:02:25.737Z,13.04
2022-10-09T15:04:53.605Z,12.97
2022-10-09T15:07:21.520Z,12.89
2022-10-09T15:09:50.008Z,12.68
2022-10-09T15:12:17.923Z,12.78
2022-10-09T15:14:45.743Z,12.78
2022-10-09T15:17:13.670Z,12.75
2022-10-09T15:19:41.503Z,12.78
2022-10-09T15:22:09.494Z,12.69
2022-10-09T15:24:37.187Z,12.54
2022-10-09T15:27:05.565Z,12.47
2022-10-09T15:29:33.327Z,12.49
2022-10-09T15:32:02.179Z,12.30
2022-10-09T15:34:30.885Z,12.02
2022-10-09T15:36:58.544Z,11.90
2022-10-09T15:39:26.923Z,11.75
2022-10-09T15:41:54.650Z,11.53
2022-10-09T15:44:22.608Z,11.31
2022-10-09T15:46:50.581Z,11.16
2022-10-09T15:49:19.304Z,10.99
2022-10-09T15:51:47.125Z,10.80
2022-10-09T15:54:15.491Z,10.71
2022-10-09T15:56:43.539Z,10.52
2022-10-09T15:59:16.757Z,10.45
2022-10-09T16:01:44.873Z,10.36
2022-10-09T16:04:12.654Z,10.26
2022-10-09T16:06:40.537Z,10.15
2022-10-09T16:09:08.932Z,9.98
2022-10-09T16:11:36.761Z,9.86
2022-10-09T16:14:05.106Z,9.72
2022-10-09T16:16:32.881Z,9.58
2022-10-09T16:19:02.124Z,9.51
2022-10-09T16:21:31.338Z,9.36
2022-10-09T16:24:00.246Z,9.25
2022-10-09T16:26:29.621Z,9.14
2022-10-09T16:28:59.456Z,9.02
2022-10-09T16:31:34.922Z,8.94
2022-10-09T16:34:06.674Z,8.82
2022-10-09T16:36:34.770Z,8.74
2022-10-09T16:39:02.690Z,8.74
2022-10-09T16:41:30.569Z,8.66
2022-10-09T16:44:00.321Z,8.59
2022-10-09T16:46:32.186Z,8.52
2022-10-09T16:49:01.538Z,8.47
2022-10-09T16:51:34.889Z,8.47
2022-10-09T16:54:05.165Z,8.31
2022-10-09T16:56:36.244Z,8.27
2022-10-09T16:59:11.213Z,8.15
2022-10-09T17:01:43.730Z,8.10
2022-10-09T17:04:13.191Z,7.98
2022-10-09T17:06:45.657Z,7.92
2022-10-09T17:09:14.537Z,7.82
2022-10-09T17:11:43.659Z,7.81
2022-10-09T17:14:11.968Z,7.75
2022-10-09T17:16:41.973Z,7.78
2022-10-09T17:19:09.839Z,7.70
2022-10-09T17:21:38.089Z,7.69
2022-10-09T17:24:06.556Z,7.67
2022-10-09T17:26:35.813Z,7.57
2022-10-09T17:29:04.695Z,7.45
2022-10-09T17:31:33.302Z,7.39
2022-10-09T17:34:04.397Z,7.40
2022-10-09T17:36:37.860Z,7.24
2022-10-09T17:39:08.695Z,7.17
2022-10-09T17:41:36.836Z,7.12
2022-10-09T17:44:05.489Z,7.10
2022-10-09T17:46:33.558Z,7.01
2022-10-09T17:49:01.482Z,7.02
2022-10-09T17:51:38.977Z,7.00
2022-10-09T17:54:12.212Z,6.96
2022-10-09T17:56:41.200Z,6.93
2022-10-09T17:59:09.738Z,6.90
2022-10-09T18:01:37.689Z,6.83
2022-10-09T18:04:05.590Z,6.80
2022-10-09T18:06:35.067Z,6.75
2022-10-09T18:09:03.763Z,6.66
2022-10-09T18:11:31.548Z,6.65
2022-10-09T18:13:59.663Z,6.62
2022-10-09T18:16:35.723Z,6.54
2022-10-09T18:19:13.468Z,6.50
2022-10-09T18:21:44.701Z,6.45
2022-10-09T18:24:16.755Z,6.40
2022-10-09T18:26:45.713Z,6.36
2022-10-09T18:29:14.445Z,6.31
2022-10-09T18:31:42.576Z,6.26
2022-10-09T18:34:10.994Z,6.26
2022-10-09T18:36:39.404Z,6.33
2022-10-09T18:39:13.925Z,6.26
2022-10-09T18:41:43.005Z,6.22
2022-10-09T18:44:17.795Z,6.17
2022-10-09T18:46:49.589Z,6.09
2022-10-09T18:49:21.026Z,6.06
2022-10-09T18:51:49.976Z,6.01
2022-10-09T18:54:21.839Z,6.21
2022-10-09T18:56:49.826Z,6.14
2022-10-09T18:59:20.939Z,6.05
2022-10-09T19:01:49.248Z,5.95
2022-10-09T19:04:19.071Z,5.93
2022-10-09T19:06:46.860Z,5.89
2022-10-09T19:09:15.703Z,5.86
2022-10-09T19:11:43.418Z,5.75
2022-10-09T19:14:11.664Z,5.75
2022-10-09T19:16:40.080Z,5.79
2022-10-09T19:19:08.176Z,5.75
2022-10-09T19:21:37.912Z,5.75
2022-10-09T19:24:07.149Z,5.78
2022-10-09T19:26:35.442Z,5.71
2022-10-09T19:29:05.150Z,5.59
2022-10-09T19:31:34.468Z,5.53
2022-10-09T19:34:04.427Z,5.56
2022-10-09T19:36:34.402Z,5.68
2022-10-09T19:39:04.166Z,5.54
2022-10-09T19:41:32.121Z,5.47
2022-10-09T19:44:00.725Z,5.39
2022-10-09T19:46:28.821Z,5.38
2022-10-09T19:48:57.937Z,5.32
2022-10-09T19:51:27.709Z,5.28
2022-10-09T19:53:56.284Z,5.24
2022-10-09T19:56:30.021Z,5.23
2022-10-09T19:59:01.857Z,5.23
2022-10-09T20:01:32.898Z,5.18
2022-10-09T20:04:04.419Z,5.16
2022-10-09T20:06:32.201Z,5.11
2022-10-09T20:09:00.474Z,5.08
2022-10-09T20:11:28.380Z,4.98
2022-10-09T20:13:56.639Z,4.98
2022-10-09T20:16:25.840Z,4.97
2022-10-09T20:18:55.299Z,4.92
2022-10-09T20:21:23.148Z,4.92
2022-10-09T20:23:51.556Z,4.90
2022-10-09T20:26:20.993Z,4.85
2022-10-09T20:28:49.471Z,4.81
2022-10-09T20:31:21.211Z,4.76
2022-10-09T20:33:50.893Z,4.91
2022-10-09T20:36:28.807Z,4.80
2022-10-09T20:38:59.001Z,4.72
2022-10-09T20:41:29.102Z,4.67
2022-10-09T20:43:59.762Z,4.83
2022-10-09T20:46:30.011Z,4.80
2022-10-09T20:48:58.141Z,4.68
2022-10-09T20:51:26.667Z,4.55
2022-10-09T20:53:57.184Z,4.54
2022-10-09T20:56:27.308Z,4.49
2022-10-09T20:58:56.662Z,4.46
2022-10-09T21:01:25.095Z,4.49
2022-10-09T21:03:53.193Z,4.40
2022-10-09T21:06:22.105Z,4.44
2022-10-09T21:08:50.842Z,4.41
2022-10-09T21:11:20.429Z,4.34
2022-10-09T21:13:49.291Z,4.32
2022-10-09T21:16:20.612Z,4.28
2022-10-09T21:18:53.279Z,4.24
2022-10-09T21:21:21.163Z,4.15
2022-10-09T21:23:52.717Z,4.10
2022-10-09T21:26:22.384Z,4.26
2022-10-09T21:28:55.407Z,4.18
2022-10-09T21:31:28.641Z,4.20
2022-10-09T21:33:59.797Z,4.13
2022-10-09T21:36:30.534Z,4.14
2022-10-09T21:38:59.129Z,4.10
2022-10-09T21:41:27.196Z,4.19
2022-10-09T21:43:55.458Z,4.38
2022-10-09T21:46:23.803Z,4.26
2022-10-09T21:48:53.194Z,4.14
2022-10-09T21:51:21.366Z,4.11
2022-10-09T21:53:49.555Z,4.04
2022-10-09T21:56:17.579Z,3.94
2022-10-09T21:58:49.107Z,3.82
2022-10-09T22:01:17.562Z,3.85
2022-10-09T22:03:45.700Z,3.94
2022-10-09T22:06:18.929Z,3.94
2022-10-09T22:08:48.070Z,3.73
2022-10-09T22:11:16.677Z,3.72
2022-10-09T22:13:44.749Z,3.62
2022-10-09T22:16:14.980Z,3.68
2022-10-09T22:18:43.058Z,3.70
2022-10-09T22:21:13.985Z,3.67
2022-10-09T22:23:42.215Z,3.57
2022-10-09T22:26:17.076Z,3.54
2022-10-09T22:28:46.517Z,3.51
2022-10-09T22:31:23.622Z,3.67
2022-10-09T22:34:00.036Z,3.56
2022-10-09T22:36:30.504Z,3.45
2022-10-09T22:39:00.866Z,3.42
2022-10-09T22:41:30.456Z,3.41
2022-10-09T22:43:59.762Z,3.36
2022-10-09T22:46:31.889Z,3.33
2022-10-09T22:48:59.805Z,3.34
2022-10-09T22:51:29.002Z,3.34
2022-10-09T22:53:58.180Z,3.35
2022-10-09T22:56:29.923Z,3.33
2022-10-09T22:58:58.650Z,3.26
2022-10-09T23:01:31.349Z,3.33
2022-10-09T23:04:01.880Z,3.38
2022-10-09T23:06:30.529Z,3.39
2022-10-09T23:09:00.293Z,3.30
2022-10-09T23:11:28.397Z,3.23
2022-10-09T23:13:58.215Z,3.15
2022-10-09T23:16:28.084Z,3.11
2022-10-09T23:18:57.944Z,3.14
2022-10-09T23:21:27.442Z,3.09
2022-10-09T23:23:56.381Z,3.12
2022-10-09T23:26:27.624Z,3.14
2022-10-09T23:29:00.914Z,3.10
2022-10-09T23:31:29.670Z,3.13
2022-10-09T23:33:58.687Z,3.24
2022-10-09T23:36:28.949Z,3.27
2022-10-09T23:38:58.752Z,3.20
2022-10-09T23:41:28.532Z,3.15
2022-10-09T23:43:56.473Z,3.08
2022-10-09T23:46:26.975Z,3.13
2022-10-09T23:48:55.493Z,3.01
2022-10-09T23:51:24.900Z,2.98
2022-10-09T23:53:53.320Z,3.00
2022-10-09T23:56:24.537Z,2.97
2022-10-09T23:58:53.464Z,2.93
